createdAt,value
2022-12-03T00:01:47.680Z,14.61
2022-12-03T00:04:14.391Z,13.87
2022-12-03T00:06:41.061Z,13.69
2022-12-03T00:09:07.947Z,14.38
2022-12-03T00:11:34.694Z,14.11
2022-12-03T00:14:01.307Z,14.16
2022-12-03T00:16:28.243Z,14.37
2022-12-03T00:18:54.993Z,14.71
2022-12-03T00:21:24.368Z,14.53
2022-12-03T00:23:51.403Z,13.60
2022-12-03T00:26:18.047Z,14.66
2022-12-03T00:28:44.683Z,13.85
2022-12-03T00:31:11.348Z,14.33
2022-12-03T00:33:37.988Z,14.51
2022-12-03T00:36:04.923Z,14.21
2022-12-03T00:38:31.535Z,14.16
2022-12-03T00:40:58.162Z,14.45
2022-12-03T00:43:24.827Z,15.10
2022-12-03T00:45:51.497Z,14.16
2022-12-03T00:48:18.188Z,15.05
2022-12-03T00:50:44.790Z,14.66
2022-12-03T00:53:11.394Z,14.66
2022-12-03T00:55:38.092Z,14.11
2022-12-03T00:58:04.720Z,14.09
2022-12-03T01:00:31.343Z,13.52
2022-12-03T01:02:57.954Z,13.99
2022-12-03T01:05:24.591Z,14.38
2022-12-03T01:07:51.302Z,14.55
2022-12-03T01:10:18.018Z,13.75
2022-12-03T01:12:44.755Z,15.17
2022-12-03T01:15:12.342Z,14.47
2022-12-03T01:17:39.417Z,14.44
2022-12-03T01:20:08.049Z,14.42
2022-12-03T01:22:35.363Z,14.58
2022-12-03T01:25:02.059Z,14.50
2022-12-03T01:27:28.699Z,14.22
2022-12-03T01:29:55.418Z,14.14
2022-12-03T01:32:22.121Z,14.20
2022-12-03T01:34:52.007Z,13.68
2022-12-03T01:37:21.735Z,13.31
2022-12-03T01:39:48.393Z,13.03
2022-12-03T01:42:25.696Z,13.21
2022-12-03T01:44:56.619Z,13.04
2022-12-03T01:47:29.891Z,12.58
2022-12-03T01:50:02.632Z,12.85
2022-12-03T01:52:34.218Z,13.65
2022-12-03T01:55:07.042Z,13.52
2022-12-03T01:57:41.223Z,13.26
2022-12-03T02:00:16.149Z,14.17
2022-12-03T02:02:43.530Z,14.16
2022-12-03T02:05:18.900Z,14.29
2022-12-03T02:07:46.156Z,14.25
2022-12-03T02:10:14.932Z,14.62
2022-12-03T02:13:05.686Z,14.58
2022-12-03T02:15:32.493Z,14.68
2022-12-03T02:18:00.146Z,15.44
2022-12-03T02:20:27.300Z,15.04
2022-12-03T02:23:04.886Z,14.58
2022-12-03T02:25:35.527Z,14.72
2022-12-03T02:28:04.679Z,15.42
2022-12-03T02:30:32.366Z,14.28
2022-12-03T02:33:00.113Z,14.90
2022-12-03T02:35:31.771Z,15.15
2022-12-03T02:38:19.792Z,15.01
2022-12-03T02:40:51.804Z,16.05
2022-12-03T02:43:21.694Z,15.44
2022-12-03T02:45:53.508Z,15.36
2022-12-03T02:48:31.899Z,15.55
2022-12-03T02:51:04.135Z,15.51
2022-12-03T02:53:41.170Z,15.77
2022-12-03T02:56:09.419Z,15.82
2022-12-03T02:58:37.438Z,15.62
2022-12-03T03:01:05.342Z,16.29
2022-12-03T03:03:33.344Z,16.04
2022-12-03T03:06:05.731Z,15.42
2022-12-03T03:08:33.658Z,15.32
2022-12-03T03:11:02.405Z,16.33
2022-12-03T03:13:31.813Z,16.07
2022-12-03T03:15:59.221Z,16.08
2022-12-03T03:18:26.015Z,15.97
2022-12-03T03:20:53.249Z,16.03
2022-12-03T03:23:23.467Z,15.62
2022-12-03T03:26:01.423Z,15.90
2022-12-03T03:28:30.558Z,16.07
2022-12-03T03:31:02.387Z,16.68
2022-12-03T03:33:30.132Z,15.56
2022-12-03T03:35:57.568Z,15.60
2022-12-03T03:38:24.343Z,15.47
2022-12-03T03:40:53.418Z,15.77
2022-12-03T03:43:24.960Z,15.22
2022-12-03T03:45:53.756Z,15.98
2022-12-03T03:48:21.934Z,15.52
2022-12-03T03:50:50.829Z,16.00
2022-12-03T03:53:19.621Z,16.44
2022-12-03T03:55:47.192Z,17.19
2022-12-03T03:58:14.375Z,16.15
2022-12-03T04:00:44.563Z,15.87
2022-12-03T04:03:11.740Z,15.18
2022-12-03T04:05:39.019Z,16.10
2022-12-03T04:08:05.893Z,16.21
2022-12-03T04:10:32.669Z,15.87
2022-12-03T04:13:19.304Z,16.14
2022-12-03T04:16:04.239Z,15.42
2022-12-03T04:18:30.968Z,15.39
2022-12-03T04:20:57.627Z,15.13
2022-12-03T04:23:30.568Z,15.32
2022-12-03T04:25:57.644Z,15.16
2022-12-03T04:28:24.342Z,15.09
2022-12-03T04:30:51.029Z,15.49
2022-12-03T04:33:17.776Z,14.68
2022-12-03T04:35:44.618Z,14.18
2022-12-03T04:38:14.006Z,14.67
2022-12-03T04:40:41.229Z,15.09
2022-12-03T04:43:08.064Z,14.54
2022-12-03T04:45:34.786Z,14.64
2022-12-03T04:48:01.646Z,15.07
2022-12-03T04:50:28.456Z,14.84
2022-12-03T04:52:55.131Z,14.49
2022-12-03T04:55:21.841Z,14.83
2022-12-03T04:57:48.510Z,14.46
2022-12-03T05:00:15.725Z,14.97
2022-12-03T05:02:42.494Z,14.89
2022-12-03T05:05:10.220Z,14.56
2022-12-03T05:07:37.578Z,14.69
2022-12-03T05:10:05.472Z,14.13
2022-12-03T05:12:32.252Z,14.05
2022-12-03T05:14:59.635Z,14.46
2022-12-03T05:17:26.412Z,13.60
2022-12-03T05:19:53.172Z,13.68
2022-12-03T05:22:19.933Z,13.73
2022-12-03T05:24:46.557Z,13.12
2022-12-03T05:27:13.304Z,12.96
2022-12-03T05:29:39.895Z,12.94
2022-12-03T05:32:06.516Z,12.77
2022-12-03T05:34:33.149Z,12.66
2022-12-03T05:36:59.779Z,12.57
2022-12-03T05:39:26.401Z,12.85
2022-12-03T05:41:53.007Z,12.70
2022-12-03T05:44:20.844Z,13.22
2022-12-03T05:46:47.578Z,13.25
2022-12-03T05:49:14.195Z,12.83
2022-12-03T05:51:40.872Z,12.91
2022-12-03T05:54:07.531Z,12.48
2022-12-03T05:56:34.157Z,12.89
2022-12-03T05:59:01.049Z,12.62
2022-12-03T06:01:27.744Z,13.00
2022-12-03T06:03:54.535Z,12.83
2022-12-03T06:06:21.737Z,12.47
2022-12-03T06:08:48.696Z,12.25
2022-12-03T06:11:15.476Z,11.92
2022-12-03T06:13:42.187Z,12.11
2022-12-03T06:16:08.979Z,11.95
2022-12-03T06:18:35.679Z,11.55
2022-12-03T06:21:02.473Z,11.90
2022-12-03T06:23:29.480Z,12.23
2022-12-03T06:25:56.292Z,12.63
2022-12-03T06:28:23.000Z,12.75
2022-12-03T06:30:49.656Z,13.37
2022-12-03T06:33:16.688Z,12.59
2022-12-03T06:35:43.318Z,12.53
2022-12-03T06:38:09.960Z,12.50
2022-12-03T06:40:36.627Z,12.12
2022-12-03T06:43:03.265Z,11.74
2022-12-03T06:45:29.888Z,11.80
2022-12-03T06:47:56.496Z,11.71
2022-12-03T06:50:23.231Z,11.74
2022-12-03T06:52:49.838Z,11.51
2022-12-03T06:55:17.367Z,12.95
2022-12-03T06:57:44.105Z,14.54
2022-12-03T07:00:11.470Z,14.90
2022-12-03T07:02:38.181Z,12.69
2022-12-03T07:05:05.123Z,12.41
2022-12-03T07:07:32.166Z,11.69
2022-12-03T07:09:59.305Z,11.83
2022-12-03T07:12:26.143Z,12.53
2022-12-03T07:14:53.035Z,11.34
2022-12-03T07:17:19.992Z,11.76
2022-12-03T07:19:46.671Z,10.93
2022-12-03T07:22:13.518Z,11.02
2022-12-03T07:24:40.198Z,11.56
2022-12-03T07:27:06.805Z,11.54
2022-12-03T07:29:33.458Z,11.85
2022-12-03T07:32:00.142Z,12.05
2022-12-03T07:34:27.084Z,11.83
2022-12-03T07:36:53.855Z,11.69
2022-12-03T07:39:20.657Z,11.72
2022-12-03T07:41:47.320Z,11.32
2022-12-03T07:44:14.683Z,11.44
2022-12-03T07:46:42.148Z,11.58
2022-12-03T07:49:08.964Z,11.64
2022-12-03T07:51:35.809Z,12.31
2022-12-03T07:54:02.479Z,11.81
2022-12-03T07:56:29.258Z,11.83
2022-12-03T07:58:56.166Z,11.39
2022-12-03T08:01:23.013Z,11.95
2022-12-03T08:03:49.758Z,11.79
2022-12-03T08:06:16.411Z,12.46
2022-12-03T08:08:43.028Z,11.99
2022-12-03T08:11:13.563Z,11.93
2022-12-03T08:13:40.573Z,11.55
2022-12-03T08:16:20.131Z,11.84
2022-12-03T08:18:49.002Z,12.18
2022-12-03T08:21:18.791Z,12.33
2022-12-03T08:23:45.735Z,12.27
2022-12-03T08:26:17.640Z,12.52
2022-12-03T08:28:44.247Z,12.78
2022-12-03T08:31:30.910Z,12.97
2022-12-03T08:34:13.083Z,13.18
2022-12-03T08:36:39.720Z,14.02
2022-12-03T08:39:32.355Z,14.00
2022-12-03T08:42:21.984Z,14.42
2022-12-03T08:44:48.664Z,14.86
2022-12-03T08:47:24.096Z,15.77
2022-12-03T08:50:33.339Z,14.65
2022-12-03T08:53:21.796Z,14.76
2022-12-03T08:55:52.860Z,14.60
2022-12-03T08:58:38.799Z,14.93
2022-12-03T09:01:08.501Z,14.24
2022-12-03T09:03:39.181Z,14.75
2022-12-03T09:06:06.109Z,14.59
2022-12-03T09:08:32.974Z,15.15
2022-12-03T09:10:59.716Z,14.61
2022-12-03T09:13:26.486Z,14.49
2022-12-03T09:15:55.305Z,14.88
2022-12-03T09:18:25.162Z,14.62
2022-12-03T09:20:51.892Z,15.14
2022-12-03T09:23:18.655Z,15.43
2022-12-03T09:25:45.407Z,15.27
2022-12-03T09:28:12.272Z,15.15
2022-12-03T09:30:38.991Z,15.39
2022-12-03T09:33:05.816Z,14.77
2022-12-03T09:35:32.595Z,15.04
2022-12-03T09:37:59.296Z,14.80
2022-12-03T09:40:26.006Z,15.63
2022-12-03T09:42:52.837Z,15.26
2022-12-03T09:45:19.680Z,15.77
2022-12-03T09:47:49.418Z,16.14
2022-12-03T09:50:21.808Z,15.96
2022-12-03T09:52:50.806Z,17.00
2022-12-03T09:55:22.876Z,15.85
2022-12-03T09:57:51.101Z,15.70
2022-12-03T10:00:21.696Z,16.94
2022-12-03T10:02:51.347Z,16.64
2022-12-03T10:05:22.611Z,16.46
2022-12-03T10:07:53.270Z,16.15
2022-12-03T10:10:22.983Z,15.57
2022-12-03T10:12:54.852Z,15.56
2022-12-03T10:15:23.441Z,15.51
2022-12-03T10:17:53.284Z,15.74
2022-12-03T10:20:23.670Z,15.95
2022-12-03T10:22:50.712Z,15.50
2022-12-03T10:25:22.895Z,15.49
2022-12-03T10:28:02.415Z,14.94
2022-12-03T10:30:29.659Z,14.99
2022-12-03T10:32:58.643Z,14.71
2022-12-03T10:35:40.611Z,15.06
2022-12-03T10:38:22.587Z,14.62
2022-12-03T10:40:50.171Z,14.22
2022-12-03T10:43:20.235Z,14.53
2022-12-03T10:45:49.510Z,14.78
2022-12-03T10:48:25.053Z,15.35
2022-12-03T10:51:21.304Z,15.01
2022-12-03T10:53:50.866Z,15.29
2022-12-03T10:56:27.370Z,15.35
2022-12-03T10:58:55.358Z,14.74
2022-12-03T11:01:25.773Z,15.00
2022-12-03T11:03:53.988Z,15.27
2022-12-03T11:06:23.095Z,15.22
2022-12-03T11:08:57.623Z,15.50
2022-12-03T11:11:31.220Z,15.63
2022-12-03T11:14:03.838Z,15.26
2022-12-03T11:16:39.295Z,16.06
2022-12-03T11:19:41.950Z,15.97
2022-12-03T11:22:08.735Z,16.10
2022-12-03T11:24:40.421Z,15.92
2022-12-03T11:27:17.574Z,15.93
2022-12-03T11:29:59.084Z,16.00
2022-12-03T11:32:37.769Z,15.85
2022-12-03T11:35:15.367Z,15.70
2022-12-03T11:37:42.341Z,15.96
2022-12-03T11:40:17.761Z,15.58
2022-12-03T11:42:48.149Z,15.76
2022-12-03T11:45:22.297Z,16.07
2022-12-03T11:47:58.775Z,16.22
2022-12-03T11:51:04.134Z,16.14
2022-12-03T11:53:31.544Z,16.54
2022-12-03T11:56:04.937Z,16.08
2022-12-03T11:58:35.099Z,16.17
2022-12-03T12:01:04.902Z,16.29
2022-12-03T12:03:34.497Z,16.67
2022-12-03T12:06:10.393Z,16.84
2022-12-03T12:08:40.745Z,16.00
2022-12-03T12:11:26.344Z,16.31
2022-12-03T12:13:58.886Z,16.15
2022-12-03T12:16:44.333Z,16.13
2022-12-03T12:19:35.370Z,16.79
2022-12-03T12:22:23.835Z,16.30
2022-12-03T12:24:52.106Z,16.57
2022-12-03T12:27:32.288Z,16.50
2022-12-03T12:30:13.413Z,16.13
2022-12-03T12:33:00.853Z,16.10
2022-12-03T12:35:29.948Z,16.58
2022-12-03T12:38:06.941Z,17.05
2022-12-03T12:40:38.947Z,17.46
2022-12-03T12:43:26.510Z,17.36
2022-12-03T12:45:56.101Z,16.83
2022-12-03T12:48:36.314Z,16.70
2022-12-03T12:51:10.870Z,16.56
2022-12-03T12:53:40.051Z,16.86
2022-12-03T12:56:11.284Z,17.12
2022-12-03T12:58:38.098Z,16.84
2022-12-03T13:01:11.451Z,17.26
2022-12-03T13:03:39.711Z,17.48
2022-12-03T13:06:10.675Z,17.28
2022-12-03T13:08:44.867Z,16.55
2022-12-03T13:11:37.931Z,17.35
2022-12-03T13:14:19.171Z,17.45
2022-12-03T13:16:47.831Z,16.92
2022-12-03T13:19:25.207Z,17.56
2022-12-03T13:21:54.423Z,17.75
2022-12-03T13:24:38.612Z,16.72
2022-12-03T13:27:18.196Z,17.14
2022-12-03T13:29:49.631Z,17.81
2022-12-03T13:32:21.489Z,17.38
2022-12-03T13:34:49.029Z,18.12
2022-12-03T13:37:26.832Z,18.76
2022-12-03T13:39:56.956Z,18.98
2022-12-03T13:42:35.362Z,19.29
2022-12-03T13:45:05.188Z,19.09
2022-12-03T13:47:32.372Z,20.20
2022-12-03T13:50:10.574Z,20.32
2022-12-03T13:52:37.535Z,20.54
2022-12-03T13:55:12.914Z,20.67
2022-12-03T13:57:39.619Z,20.28
2022-12-03T14:00:06.903Z,21.15
2022-12-03T14:02:33.620Z,20.45
2022-12-03T14:05:00.948Z,20.22
2022-12-03T14:07:27.923Z,21.39
2022-12-03T14:09:54.992Z,22.66
2022-12-03T14:12:21.897Z,22.07
2022-12-03T14:14:48.712Z,21.29
2022-12-03T14:17:15.667Z,21.69
2022-12-03T14:19:42.306Z,21.34
2022-12-03T14:22:09.136Z,20.74
2022-12-03T14:24:37.016Z,20.93
2022-12-03T14:27:03.969Z,20.39
2022-12-03T14:29:30.766Z,20.75
2022-12-03T14:31:57.653Z,21.11
2022-12-03T14:34:24.409Z,21.51
2022-12-03T14:36:51.115Z,21.51
2022-12-03T14:39:17.780Z,21.51
2022-12-03T14:41:44.506Z,21.70
2022-12-03T14:44:11.166Z,22.75
2022-12-03T14:46:37.774Z,22.09
2022-12-03T14:49:04.488Z,22.47
2022-12-03T14:51:31.139Z,22.49
2022-12-03T14:53:57.857Z,21.33
2022-12-03T14:56:24.617Z,21.55
2022-12-03T14:58:51.307Z,22.02
2022-12-03T15:01:18.027Z,22.60
2022-12-03T15:03:44.882Z,21.87
2022-12-03T15:06:12.276Z,21.68
2022-12-03T15:08:38.970Z,22.07
2022-12-03T15:11:06.415Z,21.40
2022-12-03T15:13:33.119Z,21.80
2022-12-03T15:16:02.213Z,22.19
2022-12-03T15:18:29.295Z,22.21
2022-12-03T15:20:56.403Z,20.98
2022-12-03T15:23:23.048Z,21.59
2022-12-03T15:25:49.721Z,21.63
2022-12-03T15:28:16.330Z,22.31
2022-12-03T15:30:42.991Z,23.03
2022-12-03T15:33:09.915Z,24.00
2022-12-03T15:35:36.608Z,25.21
2022-12-03T15:38:03.368Z,23.56
2022-12-03T15:40:30.003Z,23.96
2022-12-03T15:42:56.613Z,25.13
2022-12-03T15:45:23.867Z,23.16
2022-12-03T15:47:50.879Z,23.18
2022-12-03T15:50:17.834Z,24.97
2022-12-03T15:52:44.706Z,24.14
2022-12-03T15:55:11.526Z,22.93
2022-12-03T15:57:38.208Z,21.98
2022-12-03T16:00:06.185Z,23.17
2022-12-03T16:02:33.221Z,24.39
2022-12-03T16:05:02.152Z,25.77
2022-12-03T16:07:31.201Z,24.63
2022-12-03T16:09:58.193Z,28.55
2022-12-03T16:12:24.979Z,29.90
2022-12-03T16:14:51.890Z,27.67
2022-12-03T16:17:18.598Z,24.73
2022-12-03T16:19:45.540Z,24.25
2022-12-03T16:22:12.841Z,24.10
2022-12-03T16:24:39.511Z,22.05
2022-12-03T16:27:06.442Z,22.35
2022-12-03T16:29:33.237Z,21.59
2022-12-03T16:31:59.871Z,22.06
2022-12-03T16:34:26.929Z,21.56
2022-12-03T16:36:53.596Z,21.30
2022-12-03T16:39:20.290Z,22.13
2022-12-03T16:41:47.168Z,21.66
2022-12-03T16:44:13.800Z,22.05
2022-12-03T16:46:40.726Z,22.59
2022-12-03T16:49:07.588Z,23.70
2022-12-03T16:51:34.208Z,22.97
2022-12-03T16:54:00.884Z,23.01
2022-12-03T16:56:27.526Z,22.33
2022-12-03T16:58:54.275Z,23.98
2022-12-03T17:01:21.108Z,24.19
2022-12-03T17:03:47.838Z,22.85
2022-12-03T17:06:14.802Z,22.68
2022-12-03T17:08:47.375Z,22.14
2022-12-03T17:11:15.991Z,22.71
2022-12-03T17:13:42.671Z,22.53
2022-12-03T17:16:09.401Z,21.61
2022-12-03T17:18:36.124Z,22.96
2022-12-03T17:21:03.098Z,22.45
2022-12-03T17:23:30.304Z,22.33
2022-12-03T17:25:57.015Z,22.72
2022-12-03T17:28:23.853Z,22.84
2022-12-03T17:30:50.604Z,23.23
2022-12-03T17:33:17.311Z,24.51
2022-12-03T17:35:43.932Z,27.77
2022-12-03T17:38:10.628Z,29.95
2022-12-03T17:40:37.259Z,31.57
2022-12-03T17:43:04.104Z,28.85
2022-12-03T17:45:30.996Z,29.03
2022-12-03T17:47:57.623Z,30.39
2022-12-03T17:50:24.281Z,31.81
2022-12-03T17:52:50.918Z,28.67
2022-12-03T17:55:26.447Z,29.27
2022-12-03T17:57:54.749Z,31.41
2022-12-03T18:00:21.476Z,30.01
2022-12-03T18:02:50.531Z,28.60
2022-12-03T18:05:17.747Z,26.37
2022-12-03T18:07:44.533Z,29.47
2022-12-03T18:10:11.483Z,33.14
2022-12-03T18:12:38.213Z,27.23
2022-12-03T18:15:05.210Z,26.04
2022-12-03T18:17:31.955Z,23.73
2022-12-03T18:19:58.794Z,23.29
2022-12-03T18:22:26.528Z,23.25
2022-12-03T18:24:53.635Z,23.67
2022-12-03T18:27:21.565Z,24.27
2022-12-03T18:29:48.563Z,26.25
2022-12-03T18:32:28.340Z,24.93
2022-12-03T18:34:56.800Z,23.51
2022-12-03T18:37:27.710Z,24.30
2022-12-03T18:39:57.234Z,25.43
2022-12-03T18:42:25.124Z,24.09
2022-12-03T18:44:54.293Z,23.81
2022-12-03T18:47:27.397Z,26.25
2022-12-03T18:49:55.742Z,23.59
2022-12-03T18:52:23.894Z,26.94
2022-12-03T18:54:50.803Z,23.13
2022-12-03T18:57:17.461Z,24.87
2022-12-03T18:59:44.382Z,23.70
2022-12-03T19:02:45.929Z,24.68
2022-12-03T19:05:04.969Z,22.61
2022-12-03T19:07:31.722Z,22.63
2022-12-03T19:09:58.494Z,22.76
2022-12-03T19:12:25.274Z,23.44
2022-12-03T19:14:51.898Z,21.92
2022-12-03T19:17:18.599Z,22.33
2022-12-03T19:19:45.288Z,21.81
2022-12-03T19:22:11.900Z,21.41
2022-12-03T19:24:38.608Z,21.50
2022-12-03T19:27:05.213Z,21.51
2022-12-03T19:29:31.851Z,22.31
2022-12-03T19:32:01.138Z,21.67
2022-12-03T19:34:28.111Z,21.54
2022-12-03T19:36:56.764Z,21.81
2022-12-03T19:39:23.795Z,21.73
2022-12-03T19:41:50.646Z,22.85
2022-12-03T19:44:18.963Z,21.14
2022-12-03T19:46:45.668Z,21.67
2022-12-03T19:49:12.304Z,23.02
2022-12-03T19:51:39.060Z,30.76
2022-12-03T19:54:08.066Z,25.81
2022-12-03T19:56:35.090Z,23.03
2022-12-03T19:59:02.068Z,23.62
2022-12-03T20:01:32.381Z,24.47
2022-12-03T20:04:01.320Z,24.07
2022-12-03T20:06:31.727Z,24.05
2022-12-03T20:09:05.649Z,23.90
2022-12-03T20:11:34.321Z,22.68
2022-12-03T20:14:08.139Z,23.42
2022-12-03T20:16:35.761Z,26.46
2022-12-03T20:19:06.392Z,27.51
2022-12-03T20:21:35.950Z,28.64
2022-12-03T20:24:03.899Z,29.31
2022-12-03T20:26:30.723Z,27.90
2022-12-03T20:28:57.966Z,27.04
2022-12-03T20:31:30.018Z,28.03
2022-12-03T20:33:59.330Z,27.42
2022-12-03T20:36:27.648Z,29.07
2022-12-03T20:38:55.988Z,25.91
2022-12-03T20:41:22.920Z,27.02
2022-12-03T20:43:50.609Z,27.64
2022-12-03T20:46:26.059Z,26.52
2022-12-03T20:48:53.468Z,24.86
2022-12-03T20:51:22.819Z,24.24
2022-12-03T20:53:50.022Z,22.34
2022-12-03T20:56:23.403Z,25.66
2022-12-03T20:58:50.906Z,28.97
2022-12-03T21:01:21.142Z,27.20
2022-12-03T21:03:50.511Z,24.66
2022-12-03T21:06:18.050Z,26.59
2022-12-03T21:08:45.122Z,23.92
2022-12-03T21:11:20.484Z,28.02
2022-12-03T21:13:47.757Z,25.51
2022-12-03T21:16:17.821Z,26.30
2022-12-03T21:18:45.714Z,23.42
2022-12-03T21:21:16.864Z,22.51
2022-12-03T21:23:44.628Z,22.49
2022-12-03T21:26:20.649Z,22.32
2022-12-03T21:28:50.491Z,23.05
2022-12-03T21:31:21.842Z,22.07
2022-12-03T21:33:48.757Z,21.81
2022-12-03T21:36:16.439Z,22.72
2022-12-03T21:38:44.746Z,22.48
2022-12-03T21:41:12.750Z,23.82
2022-12-03T21:43:39.411Z,23.80
2022-12-03T21:47:10.891Z,22.04
2022-12-03T21:48:55.061Z,22.66
2022-12-03T21:51:21.945Z,26.18
2022-12-03T21:53:48.563Z,26.94
2022-12-03T21:56:18.668Z,25.72
2022-12-03T21:58:46.497Z,21.21
2022-12-03T22:01:19.796Z,23.58
2022-12-03T22:03:47.200Z,24.02
2022-12-03T22:06:14.596Z,21.82
2022-12-03T22:08:41.476Z,21.59
2022-12-03T22:11:17.298Z,21.18
2022-12-03T22:13:44.300Z,20.97
2022-12-03T22:16:16.578Z,24.65
2022-12-03T22:18:43.975Z,23.59
2022-12-03T22:21:17.572Z,25.05
2022-12-03T22:23:44.859Z,22.85
2022-12-03T22:26:14.422Z,23.11
2022-12-03T22:28:46.128Z,22.07
2022-12-03T22:31:13.789Z,21.98
2022-12-03T22:33:41.044Z,21.71
2022-12-03T22:36:18.266Z,21.81
2022-12-03T22:38:46.534Z,21.12
2022-12-03T22:41:14.023Z,21.26
2022-12-03T22:43:40.704Z,20.74
2022-12-03T22:46:08.993Z,20.97
2022-12-03T22:48:36.575Z,20.91
2022-12-03T22:51:03.443Z,20.74
2022-12-03T22:53:30.242Z,19.98
2022-12-03T22:55:59.352Z,20.00
2022-12-03T22:58:28.289Z,20.75
2022-12-03T23:01:01.222Z,20.33
2022-12-03T23:03:30.334Z,20.08
2022-12-03T23:05:57.017Z,21.24
2022-12-03T23:08:23.854Z,20.95
2022-12-03T23:10:52.483Z,21.84
2022-12-03T23:13:20.418Z,19.89
2022-12-03T23:15:51.807Z,20.08
2022-12-03T23:18:20.155Z,20.35
2022-12-03T23:20:55.131Z,19.07
2022-12-03T23:23:24.132Z,19.37
2022-12-03T23:26:02.954Z,18.46
2022-12-03T23:28:32.259Z,17.92
2022-12-03T23:30:59.831Z,18.57
2022-12-03T23:33:27.272Z,18.63
2022-12-03T23:35:54.050Z,19.11
2022-12-03T23:38:21.354Z,19.07
2022-12-03T23:40:48.530Z,18.77
2022-12-03T23:43:15.857Z,19.02
2022-12-03T23:45:42.491Z,19.28
2022-12-03T23:48:09.176Z,18.58
2022-12-03T23:50:39.183Z,19.17
2022-12-03T23:53:05.868Z,19.10
2022-12-03T23:55:32.480Z,19.00
2022-12-03T23:57:59.120Z,19.46
